createdAt,value
2022-10-06T00:02:11.158Z,12.64
2022-10-06T00:05:14.559Z,12.60
2022-10-06T00:08:18.493Z,12.63
2022-10-06T00:11:22.467Z,12.40
2022-10-06T00:14:25.560Z,12.50
2022-10-06T00:17:28.549Z,12.37
2022-10-06T00:20:31.435Z,12.29
2022-10-06T00:23:34.540Z,12.32
2022-10-06T00:26:37.690Z,12.31
2022-10-06T00:29:42.621Z,12.24
2022-10-06T00:33:00.773Z,12.39
2022-10-06T00:36:03.950Z,12.42
2022-10-06T00:39:06.684Z,12.45
2022-10-06T00:42:25.574Z,12.49
2022-10-06T00:45:41.131Z,12.46
2022-10-06T00:48:47.038Z,12.33
2022-10-06T00:51:54.648Z,12.32
2022-10-06T00:54:59.165Z,12.32
2022-10-06T00:58:03.540Z,12.35
2022-10-06T01:01:06.907Z,12.40
2022-10-06T01:04:12.628Z,12.30
2022-10-06T01:07:18.333Z,12.21
2022-10-06T01:10:22.140Z,12.11
2022-10-06T01:13:25.435Z,11.96
2022-10-06T01:16:28.230Z,11.88
2022-10-06T01:20:09.278Z,11.83
2022-10-06T01:23:12.313Z,11.74
2022-10-06T01:26:16.513Z,11.56
2022-10-06T01:29:20.421Z,11.45
2022-10-06T01:32:25.374Z,11.40
2022-10-06T01:35:29.102Z,11.45
2022-10-06T01:38:32.748Z,11.42
2022-10-06T01:41:36.760Z,11.46
2022-10-06T01:44:39.872Z,11.45
2022-10-06T01:47:42.830Z,11.44
2022-10-06T01:50:46.143Z,11.42
2022-10-06T01:53:49.839Z,11.37
2022-10-06T01:56:53.028Z,11.37
2022-10-06T01:59:56.667Z,11.38
2022-10-06T02:03:00.331Z,11.36
2022-10-06T02:06:05.067Z,11.38
2022-10-06T02:09:08.962Z,11.37
2022-10-06T02:12:14.920Z,11.39
2022-10-06T02:15:17.783Z,11.30
2022-10-06T02:18:20.986Z,11.40
2022-10-06T02:21:24.873Z,11.46
2022-10-06T02:24:28.304Z,11.36
2022-10-06T02:27:31.488Z,11.44
2022-10-06T02:30:35.658Z,11.30
2022-10-06T02:33:40.026Z,11.22
2022-10-06T02:36:43.129Z,11.14
2022-10-06T02:39:46.298Z,11.03
2022-10-06T02:42:49.101Z,10.91
2022-10-06T02:46:01.365Z,10.90
2022-10-06T02:49:04.461Z,10.82
2022-10-06T02:52:08.811Z,10.74
2022-10-06T02:55:12.158Z,10.68
2022-10-06T02:58:15.466Z,10.72
2022-10-06T03:01:22.108Z,10.69
2022-10-06T03:04:27.551Z,10.60
2022-10-06T03:07:30.399Z,10.47
2022-10-06T03:10:34.860Z,10.44
2022-10-06T03:13:37.720Z,10.31
2022-10-06T03:16:43.181Z,10.21
2022-10-06T03:19:47.306Z,10.07
2022-10-06T03:22:53.594Z,9.91
2022-10-06T03:25:57.766Z,10.00
2022-10-06T03:29:01.912Z,10.02
2022-10-06T03:32:05.107Z,10.07
2022-10-06T03:35:09.368Z,10.10
2022-10-06T03:38:12.466Z,10.00
2022-10-06T03:41:25.115Z,10.04
2022-10-06T03:44:27.997Z,10.03
2022-10-06T03:47:31.504Z,9.97
2022-10-06T03:50:34.218Z,9.83
2022-10-06T03:53:37.902Z,9.76
2022-10-06T03:56:41.967Z,9.67
2022-10-06T03:59:45.057Z,9.65
2022-10-06T04:02:50.108Z,9.63
2022-10-06T04:05:55.514Z,9.62
2022-10-06T04:08:59.052Z,9.62
2022-10-06T04:12:02.352Z,9.53
2022-10-06T04:15:06.154Z,9.59
2022-10-06T04:18:09.422Z,9.59
2022-10-06T04:21:13.539Z,9.61
2022-10-06T04:24:18.629Z,9.66
2022-10-06T04:27:29.267Z,9.63
2022-10-06T04:30:34.695Z,9.54
2022-10-06T04:33:37.664Z,9.47
2022-10-06T04:36:43.092Z,9.42
2022-10-06T04:39:46.695Z,9.36
2022-10-06T04:42:50.833Z,9.27
2022-10-06T04:45:59.072Z,9.27
2022-10-06T04:49:02.682Z,9.26
2022-10-06T04:52:07.544Z,9.31
2022-10-06T04:55:11.461Z,9.34
2022-10-06T04:58:14.996Z,9.35
2022-10-06T05:01:19.180Z,9.40
2022-10-06T05:04:22.604Z,9.43
2022-10-06T05:07:25.736Z,9.53
2022-10-06T05:10:28.680Z,9.66
2022-10-06T05:13:32.606Z,9.71
2022-10-06T05:16:38.378Z,9.78
2022-10-06T05:19:42.033Z,9.90
2022-10-06T05:22:44.857Z,9.96
2022-10-06T05:25:53.373Z,10.02
2022-10-06T05:28:57.388Z,10.10
2022-10-06T05:32:00.859Z,10.16
2022-10-06T05:35:04.607Z,10.08
2022-10-06T05:38:09.842Z,10.06
2022-10-06T05:41:18.743Z,10.16
2022-10-06T05:44:21.885Z,10.25
2022-10-06T05:47:24.684Z,10.23
2022-10-06T05:50:27.596Z,10.20
2022-10-06T05:53:32.030Z,10.07
2022-10-06T05:56:36.799Z,10.12
2022-10-06T05:59:40.845Z,10.11
2022-10-06T06:02:44.036Z,10.13
2022-10-06T06:05:48.794Z,9.96
2022-10-06T06:08:55.394Z,10.00
2022-10-06T06:12:00.326Z,10.12
2022-10-06T06:15:24.439Z,10.11
2022-10-06T06:18:29.093Z,10.20
2022-10-06T06:21:33.409Z,9.82
2022-10-06T06:24:36.520Z,9.77
2022-10-06T06:27:42.241Z,10.20
2022-10-06T06:30:45.656Z,10.30
2022-10-06T06:33:51.829Z,10.42
2022-10-06T06:36:56.061Z,10.59
2022-10-06T06:39:58.829Z,10.73
2022-10-06T06:43:02.307Z,10.75
2022-10-06T06:46:08.607Z,10.91
2022-10-06T06:49:20.829Z,11.30
2022-10-06T06:52:26.219Z,11.49
2022-10-06T06:55:29.597Z,11.30
2022-10-06T06:58:32.901Z,11.63
2022-10-06T07:01:38.430Z,11.74
2022-10-06T07:04:41.412Z,11.94
2022-10-06T07:07:44.937Z,11.80
2022-10-06T07:10:50.443Z,11.95
2022-10-06T07:13:56.113Z,12.03
2022-10-06T07:17:17.424Z,11.85
2022-10-06T07:20:39.467Z,12.52
2022-10-06T07:24:02.035Z,12.62
2022-10-06T07:27:05.781Z,12.80
2022-10-06T07:30:19.518Z,12.62
2022-10-06T07:33:23.537Z,12.72
2022-10-06T07:36:27.470Z,13.25
2022-10-06T07:39:32.222Z,13.55
2022-10-06T07:42:48.487Z,13.87
2022-10-06T07:45:52.173Z,13.96
2022-10-06T07:48:55.715Z,14.12
2022-10-06T07:51:58.836Z,14.49
2022-10-06T07:55:01.734Z,14.20
2022-10-06T07:58:12.806Z,14.44
2022-10-06T08:01:18.991Z,14.74
2022-10-06T08:04:23.118Z,14.78
2022-10-06T08:07:27.058Z,15.26
2022-10-06T08:10:30.065Z,14.90
2022-10-06T08:13:32.786Z,15.32
2022-10-06T08:16:36.172Z,15.44
2022-10-06T08:19:38.914Z,15.35
2022-10-06T08:22:41.918Z,15.69
2022-10-06T08:25:51.001Z,15.40
2022-10-06T08:28:57.699Z,15.70
2022-10-06T08:32:01.145Z,15.99
2022-10-06T08:35:04.415Z,16.43
2022-10-06T08:38:07.132Z,16.73
2022-10-06T08:41:17.707Z,16.39
2022-10-06T08:44:40.785Z,16.61
2022-10-06T08:48:14.038Z,16.86
2022-10-06T08:51:29.084Z,16.76
2022-10-06T08:54:53.972Z,17.32
2022-10-06T08:58:18.618Z,17.32
2022-10-06T09:01:24.366Z,17.09
2022-10-06T09:04:31.739Z,17.22
2022-10-06T09:07:58.364Z,17.28
2022-10-06T09:11:39.687Z,17.50
2022-10-06T09:14:52.906Z,17.60
2022-10-06T09:18:00.469Z,17.57
2022-10-06T09:21:06.516Z,17.32
2022-10-06T09:24:30.425Z,17.57
2022-10-06T09:27:34.403Z,17.95
2022-10-06T09:30:37.676Z,18.12
2022-10-06T09:33:40.709Z,17.75
2022-10-06T09:37:07.630Z,18.05
2022-10-06T09:40:37.177Z,18.05
2022-10-06T09:43:40.373Z,17.95
2022-10-06T09:46:43.709Z,18.06
2022-10-06T09:50:03.640Z,18.20
2022-10-06T09:53:11.917Z,17.90
2022-10-06T09:56:18.988Z,18.11
2022-10-06T09:59:39.171Z,18.65
2022-10-06T10:02:43.056Z,18.40
2022-10-06T10:05:55.393Z,18.43
2022-10-06T10:09:17.753Z,18.37
2022-10-06T10:12:30.154Z,19.27
2022-10-06T10:15:53.648Z,19.89
2022-10-06T10:18:57.175Z,19.96
2022-10-06T10:22:00.172Z,19.63
2022-10-06T10:25:04.520Z,19.84
2022-10-06T10:28:15.793Z,18.63
2022-10-06T10:31:31.429Z,18.71
2022-10-06T10:34:52.655Z,18.83
2022-10-06T10:38:15.746Z,18.54
2022-10-06T10:41:24.285Z,18.52
2022-10-06T10:44:35.210Z,18.38
2022-10-06T10:47:39.766Z,18.81
2022-10-06T10:50:42.673Z,18.56
2022-10-06T10:53:54.335Z,18.76
2022-10-06T10:56:58.782Z,18.43
2022-10-06T11:00:12.685Z,18.72
2022-10-06T11:03:15.723Z,18.47
2022-10-06T11:06:41.536Z,18.94
2022-10-06T11:09:52.310Z,19.19
2022-10-06T11:13:19.188Z,19.26
2022-10-06T11:16:22.127Z,19.39
2022-10-06T11:20:04.236Z,19.80
2022-10-06T11:23:56.184Z,19.45
2022-10-06T11:27:23.741Z,20.45
2022-10-06T11:30:27.051Z,19.57
2022-10-06T11:33:34.258Z,20.09
2022-10-06T11:36:44.655Z,20.88
2022-10-06T11:40:12.228Z,20.75
2022-10-06T11:43:37.191Z,20.81
2022-10-06T11:46:45.144Z,21.33
2022-10-06T11:49:52.300Z,22.32
2022-10-06T11:52:55.965Z,22.07
2022-10-06T11:56:17.929Z,22.00
2022-10-06T11:59:26.094Z,23.12
2022-10-06T12:02:35.152Z,23.50
2022-10-06T12:05:55.666Z,23.93
2022-10-06T12:08:59.147Z,23.80
2022-10-06T12:12:08.451Z,22.35
2022-10-06T12:17:05.543Z,21.40
2022-10-06T12:18:58.971Z,22.06
2022-10-06T12:22:22.594Z,23.20
2022-10-06T12:25:54.165Z,22.44
2022-10-06T12:29:02.747Z,20.81
2022-10-06T12:32:37.060Z,21.38
2022-10-06T12:35:41.325Z,21.61
2022-10-06T12:38:45.271Z,21.33
2022-10-06T12:42:07.828Z,22.06
2022-10-06T12:45:16.266Z,24.81
2022-10-06T12:48:24.895Z,24.04
2022-10-06T12:51:34.700Z,24.27
2022-10-06T12:54:44.446Z,23.53
2022-10-06T12:57:49.631Z,24.08
2022-10-06T13:00:53.514Z,23.78
2022-10-06T13:03:56.589Z,24.10
2022-10-06T13:06:59.347Z,24.02
2022-10-06T13:10:14.653Z,24.54
2022-10-06T13:13:24.494Z,24.96
2022-10-06T13:16:39.501Z,24.75
2022-10-06T13:19:44.337Z,23.52
2022-10-06T13:22:55.741Z,24.21
2022-10-06T13:26:04.692Z,25.63
2022-10-06T13:29:21.367Z,25.03
2022-10-06T13:32:26.053Z,26.52
2022-10-06T13:35:30.501Z,26.29
2022-10-06T13:38:35.650Z,23.96
2022-10-06T13:41:56.750Z,23.26
2022-10-06T13:45:00.766Z,24.65
2022-10-06T13:48:15.218Z,25.11
2022-10-06T13:51:23.352Z,24.90
2022-10-06T13:54:40.683Z,26.15
2022-10-06T13:57:56.492Z,25.53
2022-10-06T14:01:01.271Z,23.91
2022-10-06T14:04:21.091Z,22.61
2022-10-06T14:07:24.066Z,22.60
2022-10-06T14:10:37.255Z,22.77
2022-10-06T14:13:53.417Z,22.36
2022-10-06T14:16:56.431Z,21.77
2022-10-06T14:19:59.366Z,22.03
2022-10-06T14:23:02.899Z,21.87
2022-10-06T14:26:05.766Z,21.59
2022-10-06T14:29:10.346Z,22.21
2022-10-06T14:32:15.344Z,21.94
2022-10-06T14:35:19.014Z,21.73
2022-10-06T14:38:21.760Z,21.75
2022-10-06T14:41:29.951Z,21.28
2022-10-06T14:44:32.840Z,21.40
2022-10-06T14:47:37.226Z,21.01
2022-10-06T14:50:39.963Z,21.23
2022-10-06T14:53:43.024Z,21.98
2022-10-06T14:56:45.776Z,21.83
2022-10-06T14:59:48.813Z,21.97
2022-10-06T15:02:51.666Z,21.31
2022-10-06T15:06:18.827Z,21.28
2022-10-06T15:09:21.740Z,21.09
2022-10-06T15:12:24.781Z,21.01
2022-10-06T15:15:27.887Z,21.28
2022-10-06T15:18:30.905Z,21.03
2022-10-06T15:21:33.829Z,20.86
2022-10-06T15:24:36.932Z,20.66
2022-10-06T15:27:58.392Z,20.48
2022-10-06T15:31:01.825Z,20.19
2022-10-06T15:34:06.512Z,19.95
2022-10-06T15:37:09.640Z,19.90
2022-10-06T15:40:13.109Z,19.83
2022-10-06T15:43:36.037Z,19.69
2022-10-06T15:46:53.074Z,19.52
2022-10-06T15:49:56.398Z,19.34
2022-10-06T15:52:59.161Z,19.16
2022-10-06T15:56:02.119Z,19.13
2022-10-06T15:59:05.743Z,19.20
2022-10-06T16:02:14.966Z,19.32
2022-10-06T16:05:44.025Z,19.38
2022-10-06T16:08:46.822Z,19.24
2022-10-06T16:11:50.163Z,18.89
2022-10-06T16:14:52.924Z,18.62
2022-10-06T16:17:56.349Z,18.40
2022-10-06T16:20:59.160Z,18.17
2022-10-06T16:24:02.966Z,17.96
2022-10-06T16:27:05.743Z,17.82
2022-10-06T16:30:09.268Z,17.63
2022-10-06T16:33:12.079Z,17.48
2022-10-06T16:36:16.217Z,17.34
2022-10-06T16:39:21.500Z,17.14
2022-10-06T16:42:24.729Z,16.99
2022-10-06T16:45:27.431Z,16.88
2022-10-06T16:48:35.577Z,16.82
2022-10-06T16:51:43.099Z,16.73
2022-10-06T16:54:46.150Z,16.66
2022-10-06T16:57:48.897Z,16.63
2022-10-06T17:00:58.569Z,16.62
2022-10-06T17:04:06.695Z,16.57
2022-10-06T17:07:09.999Z,16.50
2022-10-06T17:10:21.203Z,16.49
2022-10-06T17:13:24.500Z,16.44
2022-10-06T17:16:29.837Z,16.42
2022-10-06T17:19:32.910Z,16.38
2022-10-06T17:22:35.604Z,16.13
2022-10-06T17:25:39.431Z,16.09
2022-10-06T17:28:42.208Z,15.93
2022-10-06T17:31:46.077Z,15.83
2022-10-06T17:34:48.970Z,15.78
2022-10-06T17:37:51.985Z,15.73
2022-10-06T17:40:54.912Z,15.62
2022-10-06T17:44:06.179Z,15.59
2022-10-06T17:47:13.074Z,15.45
2022-10-06T17:50:17.263Z,15.31
2022-10-06T17:53:20.307Z,15.25
2022-10-06T17:56:25.877Z,15.23
2022-10-06T17:59:32.045Z,15.17
2022-10-06T18:02:36.820Z,15.14
2022-10-06T18:05:41.902Z,15.19
2022-10-06T18:08:46.139Z,15.16
2022-10-06T18:11:54.918Z,15.18
2022-10-06T18:14:58.946Z,15.17
2022-10-06T18:18:02.587Z,15.18
2022-10-06T18:21:05.951Z,15.12
2022-10-06T18:24:13.687Z,15.15
2022-10-06T18:27:16.981Z,15.11
2022-10-06T18:30:20.395Z,15.07
2022-10-06T18:36:47.168Z,14.86
2022-10-06T18:39:50.178Z,14.83
2022-10-06T18:42:53.501Z,14.79
2022-10-06T18:46:15.138Z,14.69
2022-10-06T18:49:20.775Z,14.70
2022-10-06T18:52:24.173Z,14.70
2022-10-06T18:55:27.976Z,14.65
2022-10-06T18:58:30.849Z,14.56
2022-10-06T19:01:34.552Z,14.48
2022-10-06T19:04:40.811Z,14.46
2022-10-06T19:07:45.145Z,14.37
2022-10-06T19:11:07.658Z,14.33
2022-10-06T19:14:17.192Z,14.31
2022-10-06T19:17:23.299Z,14.29
2022-10-06T19:20:27.838Z,14.29
2022-10-06T19:23:35.202Z,14.30
2022-10-06T19:26:45.678Z,14.27
2022-10-06T19:29:54.739Z,14.26
2022-10-06T19:32:58.217Z,14.25
2022-10-06T19:36:01.757Z,14.31
2022-10-06T19:39:07.282Z,14.27
2022-10-06T19:42:34.367Z,14.27
2022-10-06T19:45:38.941Z,14.30
2022-10-06T19:48:42.410Z,14.39
2022-10-06T19:51:45.590Z,14.41
2022-10-06T19:54:48.402Z,14.35
2022-10-06T19:57:51.784Z,14.24
2022-10-06T20:00:54.615Z,14.07
2022-10-06T20:03:57.756Z,14.03
2022-10-06T20:07:01.939Z,13.97
2022-10-06T20:10:05.150Z,13.90
2022-10-06T20:13:07.861Z,13.91
2022-10-06T20:16:14.589Z,13.90
2022-10-06T20:19:18.697Z,13.91
2022-10-06T20:22:22.161Z,13.85
2022-10-06T20:25:26.985Z,13.83
2022-10-06T20:28:33.867Z,13.79
2022-10-06T20:31:40.414Z,13.70
2022-10-06T20:34:43.448Z,13.66
2022-10-06T20:37:46.474Z,13.60
2022-10-06T20:40:50.350Z,13.61
2022-10-06T20:43:56.711Z,13.58
2022-10-06T20:46:59.702Z,13.47
2022-10-06T20:50:02.410Z,13.48
2022-10-06T20:53:05.657Z,13.43
2022-10-06T20:56:08.998Z,13.42
2022-10-06T20:59:12.620Z,13.43
2022-10-06T21:02:15.446Z,13.48
2022-10-06T21:05:19.127Z,13.51
2022-10-06T21:08:23.792Z,13.61
2022-10-06T21:11:27.197Z,13.47
2022-10-06T21:14:30.379Z,13.46
2022-10-06T21:17:33.516Z,13.43
2022-10-06T21:20:40.729Z,13.39
2022-10-06T21:23:50.894Z,13.38
2022-10-06T21:26:53.778Z,13.28
2022-10-06T21:29:56.957Z,13.36
2022-10-06T21:33:00.186Z,13.39
2022-10-06T21:36:05.008Z,13.40
2022-10-06T21:39:07.825Z,13.30
2022-10-06T21:42:12.047Z,13.24
2022-10-06T21:45:15.174Z,13.21
2022-10-06T21:48:18.886Z,13.20
2022-10-06T21:51:24.594Z,13.14
2022-10-06T21:54:27.775Z,13.07
2022-10-06T21:57:30.590Z,13.04
2022-10-06T22:00:33.694Z,12.99
2022-10-06T22:03:37.990Z,13.02
2022-10-06T22:06:41.205Z,13.00
2022-10-06T22:09:44.311Z,13.00
2022-10-06T22:12:47.176Z,13.04
2022-10-06T22:15:50.445Z,13.01
2022-10-06T22:18:53.337Z,12.98
2022-10-06T22:21:56.640Z,12.87
2022-10-06T22:24:59.635Z,12.80
2022-10-06T22:28:02.748Z,12.73
2022-10-06T22:31:10.706Z,12.64
2022-10-06T22:34:16.448Z,12.68
2022-10-06T22:37:19.233Z,12.71
2022-10-06T22:40:22.399Z,12.79
2022-10-06T22:43:25.252Z,12.74
2022-10-06T22:46:30.710Z,12.74
2022-10-06T22:49:33.517Z,12.59
2022-10-06T22:52:36.392Z,12.59
2022-10-06T22:55:39.047Z,12.77
2022-10-06T22:58:42.801Z,12.90
2022-10-06T23:01:45.570Z,13.05
2022-10-06T23:04:48.601Z,13.18
2022-10-06T23:07:52.277Z,13.24
2022-10-06T23:10:55.386Z,13.26
2022-10-06T23:13:58.850Z,13.37
2022-10-06T23:17:01.941Z,13.42
2022-10-06T23:20:05.147Z,13.34
2022-10-06T23:23:08.402Z,13.18
2022-10-06T23:26:12.998Z,13.24
2022-10-06T23:29:16.150Z,12.80
2022-10-06T23:32:19.037Z,12.84
2022-10-06T23:35:22.358Z,12.73
2022-10-06T23:38:25.718Z,12.71
2022-10-06T23:41:28.903Z,12.60
2022-10-06T23:44:31.755Z,12.51
2022-10-06T23:47:34.864Z,12.45
2022-10-06T23:50:37.686Z,12.42
2022-10-06T23:53:41.896Z,12.32
2022-10-06T23:56:44.801Z,12.29
2022-10-06T23:59:47.929Z,12.23
